sensor_id;sensor_type;location;lat;lon;timestamp;P1;durP1;ratioP1;P2;durP2;ratioP2
11263;SDS011;5689;48.798;9.070;2023-09-18T00:02:08;0.00;;;0.00;;
11263;SDS011;5689;48.798;9.070;2023-09-18T00:04:37;0.00;;;0.00;;
11263;SDS011;5689;48.798;9.070;2023-09-18T00:07:05;0.00;;;0.00;;
11263;SDS011;5689;48.798;9.070;2023-09-18T00:09:33;0.03;;;0.03;;
11263;SDS011;5689;48.798;9.070;2023-09-18T00:12:01;0.00;;;0.00;;
11263;SDS011;5689;48.798;9.070;2023-09-18T00:14:30;0.00;;;0.00;;
11263;SDS011;5689;48.798;9.070;2023-09-18T00:16:58;0.00;;;0.00;;
11263;SDS011;5689;48.798;9.070;2023-09-18T00:19:26;0.00;;;0.00;;
11263;SDS011;5689;48.798;9.070;2023-09-18T00:21:56;0.00;;;0.00;;
11263;SDS011;5689;48.798;9.070;2023-09-18T00:24:27;0.00;;;0.00;;
11263;SDS011;5689;48.798;9.070;2023-09-18T00:26:55;0.00;;;0.00;;
11263;SDS011;5689;48.798;9.070;2023-09-18T00:29:23;0.00;;;0.00;;
11263;SDS011;5689;48.798;9.070;2023-09-18T00:31:51;0.00;;;0.00;;
11263;SDS011;5689;48.798;9.070;2023-09-18T00:34:19;0.00;;;0.00;;
11263;SDS011;5689;48.798;9.070;2023-09-18T00:36:47;0.00;;;0.00;;
11263;SDS011;5689;48.798;9.070;2023-09-18T00:39:16;0.00;;;0.00;;
11263;SDS011;5689;48.798;9.070;2023-09-18T00:41:44;0.00;;;0.00;;
11263;SDS011;5689;48.798;9.070;2023-09-18T00:44:15;0.00;;;0.00;;
11263;SDS011;5689;48.798;9.070;2023-09-18T00:46:43;0.00;;;0.00;;
11263;SDS011;5689;48.798;9.070;2023-09-18T00:49:11;0.00;;;0.00;;
11263;SDS011;5689;48.798;9.070;2023-09-18T00:51:40;0.00;;;0.00;;
11263;SDS011;5689;48.798;9.070;2023-09-18T00:54:09;0.00;;;0.00;;
11263;SDS011;5689;48.798;9.070;2023-09-18T00:56:39;0.05;;;0.05;;
11263;SDS011;5689;48.798;9.070;2023-09-18T00:59:08;0.00;;;0.00;;
11263;SDS011;5689;48.798;9.070;2023-09-18T01:01:37;0.00;;;0.00;;
11263;SDS011;5689;48.798;9.070;2023-09-18T01:04:07;0.00;;;0.00;;
11263;SDS011;5689;48.798;9.070;2023-09-18T01:06:36;0.00;;;0.00;;
11263;SDS011;5689;48.798;9.070;2023-09-18T01:09:04;0.00;;;0.00;;
11263;SDS011;5689;48.798;9.070;2023-09-18T01:11:43;0.00;;;0.00;;
11263;SDS011;5689;48.798;9.070;2023-09-18T01:14:19;0.00;;;0.00;;
11263;SDS011;5689;48.798;9.070;2023-09-18T01:16:53;0.00;;;0.00;;
11263;SDS011;5689;48.798;9.070;2023-09-18T01:19:34;0.00;;;0.00;;
11263;SDS011;5689;48.798;9.070;2023-09-18T01:22:04;0.00;;;0.00;;
11263;SDS011;5689;48.798;9.070;2023-09-18T01:24:34;0.00;;;0.00;;
11263;SDS011;5689;48.798;9.070;2023-09-18T01:27:03;0.00;;;0.00;;
11263;SDS011;5689;48.798;9.070;2023-09-18T01:29:32;0.00;;;0.00;;
11263;SDS011;5689;48.798;9.070;2023-09-18T01:32:00;0.00;;;0.00;;
11263;SDS011;5689;48.798;9.070;2023-09-18T01:34:30;0.00;;;0.00;;
11263;SDS011;5689;48.798;9.070;2023-09-18T01:37:02;0.00;;;0.00;;
11263;SDS011;5689;48.798;9.070;2023-09-18T01:39:33;0.00;;;0.00;;
11263;SDS011;5689;48.798;9.070;2023-09-18T01:42:02;0.00;;;0.00;;
11263;SDS011;5689;48.798;9.070;2023-09-18T01:44:33;0.00;;;0.00;;
11263;SDS011;5689;48.798;9.070;2023-09-18T01:47:02;0.00;;;0.00;;
11263;SDS011;5689;48.798;9.070;2023-09-18T01:49:31;0.00;;;0.00;;
11263;SDS011;5689;48.798;9.070;2023-09-18T01:52:00;0.00;;;0.00;;
11263;SDS011;5689;48.798;9.070;2023-09-18T01:54:29;0.00;;;0.00;;
11263;SDS011;5689;48.798;9.070;2023-09-18T01:56:59;0.00;;;0.00;;
11263;SDS011;5689;48.798;9.070;2023-09-18T01:59:27;0.03;;;0.03;;
11263;SDS011;5689;48.798;9.070;2023-09-18T02:01:56;1.10;;;1.10;;
11263;SDS011;5689;48.798;9.070;2023-09-18T02:04:24;0.60;;;0.60;;
11263;SDS011;5689;48.798;9.070;2023-09-18T02:06:53;0.57;;;0.57;;
11263;SDS011;5689;48.798;9.070;2023-09-18T02:09:21;0.80;;;0.80;;
11263;SDS011;5689;48.798;9.070;2023-09-18T02:11:49;0.45;;;0.45;;
11263;SDS011;5689;48.798;9.070;2023-09-18T02:14:18;0.57;;;0.57;;
11263;SDS011;5689;48.798;9.070;2023-09-18T02:16:46;0.60;;;0.60;;
11263;SDS011;5689;48.798;9.070;2023-09-18T02:19:15;0.40;;;0.40;;
11263;SDS011;5689;48.798;9.070;2023-09-18T02:21:44;0.25;;;0.25;;
11263;SDS011;5689;48.798;9.070;2023-09-18T02:24:13;0.10;;;0.10;;
11263;SDS011;5689;48.798;9.070;2023-09-18T02:26:41;0.00;;;0.00;;
11263;SDS011;5689;48.798;9.070;2023-09-18T02:29:09;0.10;;;0.10;;
11263;SDS011;5689;48.798;9.070;2023-09-18T02:31:39;0.10;;;0.10;;
11263;SDS011;5689;48.798;9.070;2023-09-18T02:34:07;0.10;;;0.10;;
11263;SDS011;5689;48.798;9.070;2023-09-18T02:36:37;0.13;;;0.13;;
11263;SDS011;5689;48.798;9.070;2023-09-18T02:39:05;0.15;;;0.15;;
11263;SDS011;5689;48.798;9.070;2023-09-18T02:41:33;0.15;;;0.15;;
11263;SDS011;5689;48.798;9.070;2023-09-18T02:44:01;0.10;;;0.10;;
11263;SDS011;5689;48.798;9.070;2023-09-18T02:46:29;0.10;;;0.10;;
11263;SDS011;5689;48.798;9.070;2023-09-18T02:48:59;0.05;;;0.05;;
11263;SDS011;5689;48.798;9.070;2023-09-18T02:51:27;0.00;;;0.00;;
11263;SDS011;5689;48.798;9.070;2023-09-18T02:53:55;0.00;;;0.00;;
11263;SDS011;5689;48.798;9.070;2023-09-18T02:56:23;0.05;;;0.05;;
11263;SDS011;5689;48.798;9.070;2023-09-18T02:58:51;0.00;;;0.00;;
11263;SDS011;5689;48.798;9.070;2023-09-18T03:01:19;0.05;;;0.05;;
11263;SDS011;5689;48.798;9.070;2023-09-18T03:03:48;0.10;;;0.10;;
11263;SDS011;5689;48.798;9.070;2023-09-18T03:06:17;0.10;;;0.10;;
11263;SDS011;5689;48.798;9.070;2023-09-18T03:08:45;0.00;;;0.00;;
11263;SDS011;5689;48.798;9.070;2023-09-18T03:11:14;0.00;;;0.00;;
11263;SDS011;5689;48.798;9.070;2023-09-18T03:13:43;0.00;;;0.00;;
11263;SDS011;5689;48.798;9.070;2023-09-18T03:16:13;0.08;;;0.08;;
11263;SDS011;5689;48.798;9.070;2023-09-18T03:18:43;0.10;;;0.10;;
11263;SDS011;5689;48.798;9.070;2023-09-18T03:21:11;0.10;;;0.10;;
11263;SDS011;5689;48.798;9.070;2023-09-18T03:23:40;0.10;;;0.10;;
11263;SDS011;5689;48.798;9.070;2023-09-18T03:26:08;0.05;;;0.05;;
11263;SDS011;5689;48.798;9.070;2023-09-18T03:28:36;0.00;;;0.00;;
11263;SDS011;5689;48.798;9.070;2023-09-18T03:31:05;0.10;;;0.10;;
11263;SDS011;5689;48.798;9.070;2023-09-18T03:33:33;0.00;;;0.00;;
11263;SDS011;5689;48.798;9.070;2023-09-18T03:36:01;0.10;;;0.10;;
11263;SDS011;5689;48.798;9.070;2023-09-18T03:38:33;0.00;;;0.00;;
11263;SDS011;5689;48.798;9.070;2023-09-18T03:41:03;0.00;;;0.00;;
11263;SDS011;5689;48.798;9.070;2023-09-18T03:43:31;0.10;;;0.10;;
11263;SDS011;5689;48.798;9.070;2023-09-18T03:46:03;0.03;;;0.03;;
11263;SDS011;5689;48.798;9.070;2023-09-18T03:48:37;0.10;;;0.10;;
11263;SDS011;5689;48.798;9.070;2023-09-18T03:51:05;0.00;;;0.00;;
11263;SDS011;5689;48.798;9.070;2023-09-18T03:53:34;0.10;;;0.10;;
11263;SDS011;5689;48.798;9.070;2023-09-18T03:56:04;0.00;;;0.00;;
11263;SDS011;5689;48.798;9.070;2023-09-18T03:58:32;0.00;;;0.00;;
11263;SDS011;5689;48.798;9.070;2023-09-18T04:01:03;0.10;;;0.10;;
11263;SDS011;5689;48.798;9.070;2023-09-18T04:03:32;0.10;;;0.10;;
11263;SDS011;5689;48.798;9.070;2023-09-18T04:06:00;0.00;;;0.00;;
11263;SDS011;5689;48.798;9.070;2023-09-18T04:08:28;0.05;;;0.05;;
11263;SDS011;5689;48.798;9.070;2023-09-18T04:10:59;0.10;;;0.10;;
11263;SDS011;5689;48.798;9.070;2023-09-18T04:13:28;0.15;;;0.15;;
11263;SDS011;5689;48.798;9.070;2023-09-18T04:15:56;0.10;;;0.10;;
11263;SDS011;5689;48.798;9.070;2023-09-18T04:18:27;0.10;;;0.10;;
11263;SDS011;5689;48.798;9.070;2023-09-18T04:20:55;0.10;;;0.10;;
11263;SDS011;5689;48.798;9.070;2023-09-18T04:23:24;0.10;;;0.10;;
11263;SDS011;5689;48.798;9.070;2023-09-18T04:25:53;0.10;;;0.10;;
11263;SDS011;5689;48.798;9.070;2023-09-18T04:28:22;0.00;;;0.00;;
11263;SDS011;5689;48.798;9.070;2023-09-18T04:30:52;0.10;;;0.10;;
11263;SDS011;5689;48.798;9.070;2023-09-18T04:33:20;0.10;;;0.10;;
11263;SDS011;5689;48.798;9.070;2023-09-18T04:35:49;0.10;;;0.10;;
11263;SDS011;5689;48.798;9.070;2023-09-18T04:38:17;0.10;;;0.10;;
11263;SDS011;5689;48.798;9.070;2023-09-18T04:40:45;0.22;;;0.22;;
11263;SDS011;5689;48.798;9.070;2023-09-18T04:43:14;0.17;;;0.17;;
11263;SDS011;5689;48.798;9.070;2023-09-18T04:45:43;0.30;;;0.30;;
11263;SDS011;5689;48.798;9.070;2023-09-18T04:48:15;0.32;;;0.32;;
11263;SDS011;5689;48.798;9.070;2023-09-18T04:50:43;0.35;;;0.35;;
11263;SDS011;5689;48.798;9.070;2023-09-18T04:53:12;0.57;;;0.57;;
11263;SDS011;5689;48.798;9.070;2023-09-18T04:55:41;0.45;;;0.45;;
11263;SDS011;5689;48.798;9.070;2023-09-18T04:58:09;0.75;;;0.75;;
11263;SDS011;5689;48.798;9.070;2023-09-18T05:00:37;0.43;;;0.43;;
11263;SDS011;5689;48.798;9.070;2023-09-18T05:03:05;1.60;;;1.60;;
11263;SDS011;5689;48.798;9.070;2023-09-18T05:05:36;1.08;;;1.08;;
11263;SDS011;5689;48.798;9.070;2023-09-18T05:08:05;0.85;;;0.85;;
11263;SDS011;5689;48.798;9.070;2023-09-18T05:10:34;0.70;;;0.70;;
11263;SDS011;5689;48.798;9.070;2023-09-18T05:13:03;0.45;;;0.45;;
11263;SDS011;5689;48.798;9.070;2023-09-18T05:15:31;0.40;;;0.40;;
11263;SDS011;5689;48.798;9.070;2023-09-18T05:17:59;0.43;;;0.43;;
11263;SDS011;5689;48.798;9.070;2023-09-18T05:20:30;0.22;;;0.22;;
11263;SDS011;5689;48.798;9.070;2023-09-18T05:23:00;0.10;;;0.10;;
11263;SDS011;5689;48.798;9.070;2023-09-18T05:25:29;0.10;;;0.10;;
11263;SDS011;5689;48.798;9.070;2023-09-18T05:27:59;0.10;;;0.10;;
11263;SDS011;5689;48.798;9.070;2023-09-18T05:30:28;0.00;;;0.00;;
11263;SDS011;5689;48.798;9.070;2023-09-18T05:32:59;0.10;;;0.10;;
11263;SDS011;5689;48.798;9.070;2023-09-18T05:35:31;0.00;;;0.00;;
11263;SDS011;5689;48.798;9.070;2023-09-18T05:38:01;0.00;;;0.00;;
11263;SDS011;5689;48.798;9.070;2023-09-18T05:40:29;0.00;;;0.00;;
11263;SDS011;5689;48.798;9.070;2023-09-18T05:42:57;0.00;;;0.00;;
11263;SDS011;5689;48.798;9.070;2023-09-18T05:45:25;0.00;;;0.00;;
11263;SDS011;5689;48.798;9.070;2023-09-18T05:47:54;0.00;;;0.00;;
11263;SDS011;5689;48.798;9.070;2023-09-18T05:50:28;0.10;;;0.10;;
11263;SDS011;5689;48.798;9.070;2023-09-18T05:52:56;0.10;;;0.10;;
11263;SDS011;5689;48.798;9.070;2023-09-18T05:55:27;0.10;;;0.10;;
11263;SDS011;5689;48.798;9.070;2023-09-18T05:57:55;0.00;;;0.00;;
11263;SDS011;5689;48.798;9.070;2023-09-18T06:00:24;0.00;;;0.00;;
11263;SDS011;5689;48.798;9.070;2023-09-18T06:02:52;0.10;;;0.10;;
11263;SDS011;5689;48.798;9.070;2023-09-18T06:05:20;0.00;;;0.00;;
11263;SDS011;5689;48.798;9.070;2023-09-18T06:07:48;0.00;;;0.00;;
11263;SDS011;5689;48.798;9.070;2023-09-18T06:10:16;0.03;;;0.03;;
11263;SDS011;5689;48.798;9.070;2023-09-18T06:12:46;0.00;;;0.00;;
11263;SDS011;5689;48.798;9.070;2023-09-18T06:15:14;0.00;;;0.00;;
11263;SDS011;5689;48.798;9.070;2023-09-18T06:17:42;0.10;;;0.10;;
11263;SDS011;5689;48.798;9.070;2023-09-18T06:20:11;0.00;;;0.00;;
11263;SDS011;5689;48.798;9.070;2023-09-18T06:22:40;0.00;;;0.00;;
11263;SDS011;5689;48.798;9.070;2023-09-18T06:25:08;0.10;;;0.10;;
11263;SDS011;5689;48.798;9.070;2023-09-18T06:27:37;0.10;;;0.10;;
11263;SDS011;5689;48.798;9.070;2023-09-18T06:30:07;0.00;;;0.00;;
11263;SDS011;5689;48.798;9.070;2023-09-18T06:32:36;0.00;;;0.00;;
11263;SDS011;5689;48.798;9.070;2023-09-18T06:35:04;0.00;;;0.00;;
11263;SDS011;5689;48.798;9.070;2023-09-18T06:37:32;0.00;;;0.00;;
11263;SDS011;5689;48.798;9.070;2023-09-18T06:40:00;0.00;;;0.00;;
11263;SDS011;5689;48.798;9.070;2023-09-18T06:42:30;0.10;;;0.10;;
11263;SDS011;5689;48.798;9.070;2023-09-18T06:45:00;0.00;;;0.00;;
11263;SDS011;5689;48.798;9.070;2023-09-18T06:47:34;0.10;;;0.10;;
11263;SDS011;5689;48.798;9.070;2023-09-18T06:50:02;0.10;;;0.10;;
11263;SDS011;5689;48.798;9.070;2023-09-18T06:52:32;0.00;;;0.00;;
11263;SDS011;5689;48.798;9.070;2023-09-18T06:55:00;0.10;;;0.10;;
11263;SDS011;5689;48.798;9.070;2023-09-18T06:57:28;0.10;;;0.10;;
11263;SDS011;5689;48.798;9.070;2023-09-18T06:59:56;0.00;;;0.00;;
11263;SDS011;5689;48.798;9.070;2023-09-18T07:02:24;0.00;;;0.00;;
11263;SDS011;5689;48.798;9.070;2023-09-18T07:04:53;0.10;;;0.10;;
11263;SDS011;5689;48.798;9.070;2023-09-18T07:07:21;0.10;;;0.10;;
11263;SDS011;5689;48.798;9.070;2023-09-18T07:09:51;0.10;;;0.10;;
11263;SDS011;5689;48.798;9.070;2023-09-18T07:12:27;0.00;;;0.00;;
11263;SDS011;5689;48.798;9.070;2023-09-18T07:14:55;0.10;;;0.10;;
11263;SDS011;5689;48.798;9.070;2023-09-18T07:17:23;0.08;;;0.08;;
11263;SDS011;5689;48.798;9.070;2023-09-18T07:19:51;0.10;;;0.10;;
11263;SDS011;5689;48.798;9.070;2023-09-18T07:22:21;0.00;;;0.00;;
11263;SDS011;5689;48.798;9.070;2023-09-18T07:24:49;0.00;;;0.00;;
11263;SDS011;5689;48.798;9.070;2023-09-18T07:27:17;0.08;;;0.08;;
11263;SDS011;5689;48.798;9.070;2023-09-18T07:29:45;0.10;;;0.10;;
11263;SDS011;5689;48.798;9.070;2023-09-18T07:32:13;0.00;;;0.00;;
11263;SDS011;5689;48.798;9.070;2023-09-18T07:34:45;0.00;;;0.00;;
11263;SDS011;5689;48.798;9.070;2023-09-18T07:37:15;0.10;;;0.10;;
11263;SDS011;5689;48.798;9.070;2023-09-18T07:39:47;0.08;;;0.08;;
11263;SDS011;5689;48.798;9.070;2023-09-18T07:42:15;0.08;;;0.08;;
11263;SDS011;5689;48.798;9.070;2023-09-18T07:44:43;0.05;;;0.05;;
11263;SDS011;5689;48.798;9.070;2023-09-18T07:47:11;0.00;;;0.00;;
11263;SDS011;5689;48.798;9.070;2023-09-18T07:49:39;0.10;;;0.10;;
11263;SDS011;5689;48.798;9.070;2023-09-18T07:52:07;0.10;;;0.10;;
11263;SDS011;5689;48.798;9.070;2023-09-18T07:54:37;0.10;;;0.10;;
11263;SDS011;5689;48.798;9.070;2023-09-18T07:57:05;0.10;;;0.10;;
11263;SDS011;5689;48.798;9.070;2023-09-18T07:59:35;0.00;;;0.00;;
11263;SDS011;5689;48.798;9.070;2023-09-18T08:02:05;0.00;;;0.00;;
11263;SDS011;5689;48.798;9.070;2023-09-18T08:04:35;0.00;;;0.00;;
11263;SDS011;5689;48.798;9.070;2023-09-18T08:07:03;0.10;;;0.10;;
11263;SDS011;5689;48.798;9.070;2023-09-18T08:09:32;0.00;;;0.00;;
11263;SDS011;5689;48.798;9.070;2023-09-18T08:12:04;0.00;;;0.00;;
11263;SDS011;5689;48.798;9.070;2023-09-18T08:14:32;0.00;;;0.00;;
11263;SDS011;5689;48.798;9.070;2023-09-18T08:17:03;0.00;;;0.00;;
11263;SDS011;5689;48.798;9.070;2023-09-18T08:19:32;0.00;;;0.00;;
11263;SDS011;5689;48.798;9.070;2023-09-18T08:22:01;0.00;;;0.00;;
11263;SDS011;5689;48.798;9.070;2023-09-18T08:24:30;0.00;;;0.00;;
11263;SDS011;5689;48.798;9.070;2023-09-18T08:26:59;0.10;;;0.10;;
11263;SDS011;5689;48.798;9.070;2023-09-18T08:29:28;0.00;;;0.00;;
11263;SDS011;5689;48.798;9.070;2023-09-18T08:31:56;0.10;;;0.10;;
11263;SDS011;5689;48.798;9.070;2023-09-18T08:34:24;0.10;;;0.10;;
11263;SDS011;5689;48.798;9.070;2023-09-18T08:36:54;0.00;;;0.00;;
11263;SDS011;5689;48.798;9.070;2023-09-18T08:39:22;0.00;;;0.00;;
11263;SDS011;5689;48.798;9.070;2023-09-18T08:41:50;0.10;;;0.10;;
11263;SDS011;5689;48.798;9.070;2023-09-18T08:44:23;0.00;;;0.00;;
11263;SDS011;5689;48.798;9.070;2023-09-18T08:46:56;0.10;;;0.10;;
11263;SDS011;5689;48.798;9.070;2023-09-18T08:49:24;0.03;;;0.03;;
11263;SDS011;5689;48.798;9.070;2023-09-18T08:51:54;0.10;;;0.10;;
11263;SDS011;5689;48.798;9.070;2023-09-18T08:54:22;0.10;;;0.10;;
11263;SDS011;5689;48.798;9.070;2023-09-18T08:56:51;0.10;;;0.10;;
11263;SDS011;5689;48.798;9.070;2023-09-18T08:59:21;0.17;;;0.17;;
11263;SDS011;5689;48.798;9.070;2023-09-18T09:01:49;0.30;;;0.30;;
11263;SDS011;5689;48.798;9.070;2023-09-18T09:04:19;0.40;;;0.40;;
11263;SDS011;5689;48.798;9.070;2023-09-18T09:06:48;0.45;;;0.45;;
11263;SDS011;5689;48.798;9.070;2023-09-18T09:09:16;0.35;;;0.35;;
11263;SDS011;5689;48.798;9.070;2023-09-18T09:11:49;0.32;;;0.32;;
11263;SDS011;5689;48.798;9.070;2023-09-18T09:14:21;0.47;;;0.47;;
11263;SDS011;5689;48.798;9.070;2023-09-18T09:16:55;0.38;;;0.38;;
11263;SDS011;5689;48.798;9.070;2023-09-18T09:19:32;0.55;;;0.55;;
11263;SDS011;5689;48.798;9.070;2023-09-18T09:22:03;0.65;;;0.65;;
11263;SDS011;5689;48.798;9.070;2023-09-18T09:24:35;0.77;;;0.77;;
11263;SDS011;5689;48.798;9.070;2023-09-18T09:27:04;0.95;;;0.95;;
11263;SDS011;5689;48.798;9.070;2023-09-18T09:29:32;0.82;;;0.82;;
11263;SDS011;5689;48.798;9.070;2023-09-18T09:32:13;0.98;;;0.98;;
11263;SDS011;5689;48.798;9.070;2023-09-18T09:34:44;1.67;;;1.67;;
11263;SDS011;5689;48.798;9.070;2023-09-18T09:37:13;0.80;;;0.80;;
11263;SDS011;5689;48.798;9.070;2023-09-18T09:39:48;0.80;;;0.80;;
11263;SDS011;5689;48.798;9.070;2023-09-18T09:42:18;1.00;;;1.00;;
11263;SDS011;5689;48.798;9.070;2023-09-18T09:45:00;0.80;;;0.80;;
11263;SDS011;5689;48.798;9.070;2023-09-18T09:47:32;0.73;;;0.73;;
11263;SDS011;5689;48.798;9.070;2023-09-18T09:50:09;1.15;;;1.15;;
11263;SDS011;5689;48.798;9.070;2023-09-18T09:52:42;0.85;;;0.85;;
11263;SDS011;5689;48.798;9.070;2023-09-18T09:55:19;0.57;;;0.57;;
11263;SDS011;5689;48.798;9.070;2023-09-18T09:57:50;0.60;;;0.60;;
11263;SDS011;5689;48.798;9.070;2023-09-18T10:00:19;0.52;;;0.52;;
11263;SDS011;5689;48.798;9.070;2023-09-18T10:02:56;0.50;;;0.50;;
11263;SDS011;5689;48.798;9.070;2023-09-18T10:05:28;0.38;;;0.38;;
11263;SDS011;5689;48.798;9.070;2023-09-18T10:07:59;0.35;;;0.35;;
11263;SDS011;5689;48.798;9.070;2023-09-18T10:10:30;0.32;;;0.32;;
11263;SDS011;5689;48.798;9.070;2023-09-18T10:13:03;0.40;;;0.40;;
11263;SDS011;5689;48.798;9.070;2023-09-18T10:15:37;0.22;;;0.22;;
11263;SDS011;5689;48.798;9.070;2023-09-18T10:18:16;0.63;;;0.63;;
11263;SDS011;5689;48.798;9.070;2023-09-18T10:20:51;0.32;;;0.32;;
11263;SDS011;5689;48.798;9.070;2023-09-18T10:23:34;0.40;;;0.40;;
11263;SDS011;5689;48.798;9.070;2023-09-18T10:26:11;0.47;;;0.47;;
11263;SDS011;5689;48.798;9.070;2023-09-18T10:28:51;0.22;;;0.22;;
11263;SDS011;5689;48.798;9.070;2023-09-18T10:31:25;0.30;;;0.30;;
11263;SDS011;5689;48.798;9.070;2023-09-18T10:33:54;0.17;;;0.17;;
11263;SDS011;5689;48.798;9.070;2023-09-18T10:36:25;0.25;;;0.25;;
11263;SDS011;5689;48.798;9.070;2023-09-18T10:38:59;0.17;;;0.17;;
11263;SDS011;5689;48.798;9.070;2023-09-18T10:41:27;0.22;;;0.22;;
11263;SDS011;5689;48.798;9.070;2023-09-18T10:43:56;0.75;;;0.75;;
11263;SDS011;5689;48.798;9.070;2023-09-18T10:46:25;0.30;;;0.30;;
11263;SDS011;5689;48.798;9.070;2023-09-18T10:48:54;0.25;;;0.25;;
11263;SDS011;5689;48.798;9.070;2023-09-18T10:51:23;0.28;;;0.28;;
11263;SDS011;5689;48.798;9.070;2023-09-18T10:53:53;0.10;;;0.10;;
11263;SDS011;5689;48.798;9.070;2023-09-18T10:56:24;0.13;;;0.13;;
11263;SDS011;5689;48.798;9.070;2023-09-18T10:58:55;0.10;;;0.10;;
11263;SDS011;5689;48.798;9.070;2023-09-18T11:01:27;0.10;;;0.10;;
11263;SDS011;5689;48.798;9.070;2023-09-18T11:03:59;0.00;;;0.00;;
11263;SDS011;5689;48.798;9.070;2023-09-18T11:06:30;0.10;;;0.10;;
11263;SDS011;5689;48.798;9.070;2023-09-18T11:09:19;0.10;;;0.10;;
11263;SDS011;5689;48.798;9.070;2023-09-18T11:11:51;0.20;;;0.20;;
11263;SDS011;5689;48.798;9.070;2023-09-18T11:14:23;0.17;;;0.17;;
11263;SDS011;5689;48.798;9.070;2023-09-18T11:17:22;0.20;;;0.20;;
11263;SDS011;5689;48.798;9.070;2023-09-18T11:20:01;0.10;;;0.10;;
11263;SDS011;5689;48.798;9.070;2023-09-18T11:22:36;0.10;;;0.10;;
11263;SDS011;5689;48.798;9.070;2023-09-18T11:28:03;0.10;;;0.10;;
11263;SDS011;5689;48.798;9.070;2023-09-18T11:30:34;0.00;;;0.00;;
11263;SDS011;5689;48.798;9.070;2023-09-18T11:33:05;0.10;;;0.10;;
11263;SDS011;5689;48.798;9.070;2023-09-18T11:35:35;0.10;;;0.10;;
11263;SDS011;5689;48.798;9.070;2023-09-18T11:38:05;0.10;;;0.10;;
11263;SDS011;5689;48.798;9.070;2023-09-18T11:40:35;0.10;;;0.10;;
11263;SDS011;5689;48.798;9.070;2023-09-18T11:45:57;0.08;;;0.08;;
11263;SDS011;5689;48.798;9.070;2023-09-18T11:48:28;0.08;;;0.08;;
11263;SDS011;5689;48.798;9.070;2023-09-18T11:50:59;0.00;;;0.00;;
11263;SDS011;5689;48.798;9.070;2023-09-18T11:53:33;0.10;;;0.10;;
11263;SDS011;5689;48.798;9.070;2023-09-18T11:56:03;0.00;;;0.00;;
11263;SDS011;5689;48.798;9.070;2023-09-18T11:58:38;0.10;;;0.10;;
11263;SDS011;5689;48.798;9.070;2023-09-18T12:01:15;0.10;;;0.10;;
11263;SDS011;5689;48.798;9.070;2023-09-18T12:03:46;0.00;;;0.00;;
11263;SDS011;5689;48.798;9.070;2023-09-18T12:06:19;0.00;;;0.00;;
11263;SDS011;5689;48.798;9.070;2023-09-18T12:08:52;0.00;;;0.00;;
11263;SDS011;5689;48.798;9.070;2023-09-18T12:11:20;0.00;;;0.00;;
11263;SDS011;5689;48.798;9.070;2023-09-18T12:13:50;0.00;;;0.00;;
11263;SDS011;5689;48.798;9.070;2023-09-18T12:16:18;0.00;;;0.00;;
11263;SDS011;5689;48.798;9.070;2023-09-18T12:18:46;0.00;;;0.00;;
11263;SDS011;5689;48.798;9.070;2023-09-18T12:21:15;0.05;;;0.05;;
11263;SDS011;5689;48.798;9.070;2023-09-18T12:23:44;0.00;;;0.00;;
11263;SDS011;5689;48.798;9.070;2023-09-18T12:26:15;0.00;;;0.00;;
11263;SDS011;5689;48.798;9.070;2023-09-18T12:28:46;0.00;;;0.00;;
11263;SDS011;5689;48.798;9.070;2023-09-18T12:31:15;0.00;;;0.00;;
11263;SDS011;5689;48.798;9.070;2023-09-18T12:33:43;0.10;;;0.10;;
11263;SDS011;5689;48.798;9.070;2023-09-18T12:36:13;0.00;;;0.00;;
11263;SDS011;5689;48.798;9.070;2023-09-18T12:38:55;0.00;;;0.00;;
11263;SDS011;5689;48.798;9.070;2023-09-18T12:41:25;0.00;;;0.00;;
11263;SDS011;5689;48.798;9.070;2023-09-18T12:43:57;0.00;;;0.00;;
11263;SDS011;5689;48.798;9.070;2023-09-18T12:46:25;0.05;;;0.05;;
11263;SDS011;5689;48.798;9.070;2023-09-18T12:48:53;0.00;;;0.00;;
11263;SDS011;5689;48.798;9.070;2023-09-18T12:51:28;0.00;;;0.00;;
11263;SDS011;5689;48.798;9.070;2023-09-18T12:54:01;0.00;;;0.00;;
11263;SDS011;5689;48.798;9.070;2023-09-18T12:56:34;0.00;;;0.00;;
11263;SDS011;5689;48.798;9.070;2023-09-18T12:59:07;0.00;;;0.00;;
11263;SDS011;5689;48.798;9.070;2023-09-18T13:01:40;0.00;;;0.00;;
11263;SDS011;5689;48.798;9.070;2023-09-18T13:04:13;0.00;;;0.00;;
11263;SDS011;5689;48.798;9.070;2023-09-18T13:06:41;0.00;;;0.00;;
11263;SDS011;5689;48.798;9.070;2023-09-18T13:09:15;0.00;;;0.00;;
11263;SDS011;5689;48.798;9.070;2023-09-18T13:11:54;0.00;;;0.00;;
11263;SDS011;5689;48.798;9.070;2023-09-18T13:14:26;0.00;;;0.00;;
11263;SDS011;5689;48.798;9.070;2023-09-18T13:16:59;0.00;;;0.00;;
11263;SDS011;5689;48.798;9.070;2023-09-18T13:19:29;0.00;;;0.00;;
11263;SDS011;5689;48.798;9.070;2023-09-18T13:21:57;0.00;;;0.00;;
11263;SDS011;5689;48.798;9.070;2023-09-18T13:24:26;0.00;;;0.00;;
11263;SDS011;5689;48.798;9.070;2023-09-18T13:26:56;0.00;;;0.00;;
11263;SDS011;5689;48.798;9.070;2023-09-18T13:29:25;0.00;;;0.00;;
11263;SDS011;5689;48.798;9.070;2023-09-18T13:31:53;0.00;;;0.00;;
11263;SDS011;5689;48.798;9.070;2023-09-18T13:34:21;0.00;;;0.00;;
11263;SDS011;5689;48.798;9.070;2023-09-18T13:36:49;0.00;;;0.00;;
11263;SDS011;5689;48.798;9.070;2023-09-18T13:39:18;0.00;;;0.00;;
11263;SDS011;5689;48.798;9.070;2023-09-18T13:41:47;0.00;;;0.00;;
11263;SDS011;5689;48.798;9.070;2023-09-18T13:44:16;0.00;;;0.00;;
11263;SDS011;5689;48.798;9.070;2023-09-18T13:46:47;0.00;;;0.00;;
11263;SDS011;5689;48.798;9.070;2023-09-18T13:49:15;0.00;;;0.00;;
11263;SDS011;5689;48.798;9.070;2023-09-18T13:51:43;0.00;;;0.00;;
11263;SDS011;5689;48.798;9.070;2023-09-18T13:54:11;0.10;;;0.10;;
11263;SDS011;5689;48.798;9.070;2023-09-18T13:56:39;0.00;;;0.00;;
11263;SDS011;5689;48.798;9.070;2023-09-18T13:59:07;0.00;;;0.00;;
11263;SDS011;5689;48.798;9.070;2023-09-18T14:01:37;0.00;;;0.00;;
11263;SDS011;5689;48.798;9.070;2023-09-18T14:04:05;0.00;;;0.00;;
11263;SDS011;5689;48.798;9.070;2023-09-18T14:06:33;0.00;;;0.00;;
11263;SDS011;5689;48.798;9.070;2023-09-18T14:09:01;0.00;;;0.00;;
11263;SDS011;5689;48.798;9.070;2023-09-18T14:11:32;0.00;;;0.00;;
11263;SDS011;5689;48.798;9.070;2023-09-18T14:14:00;0.00;;;0.00;;
11263;SDS011;5689;48.798;9.070;2023-09-18T14:16:29;0.00;;;0.00;;
11263;SDS011;5689;48.798;9.070;2023-09-18T14:19:00;0.00;;;0.00;;
11263;SDS011;5689;48.798;9.070;2023-09-18T14:21:28;0.00;;;0.00;;
11263;SDS011;5689;48.798;9.070;2023-09-18T14:23:56;0.00;;;0.00;;
11263;SDS011;5689;48.798;9.070;2023-09-18T14:26:25;0.00;;;0.00;;
11263;SDS011;5689;48.798;9.070;2023-09-18T14:28:53;0.00;;;0.00;;
11263;SDS011;5689;48.798;9.070;2023-09-18T14:31:21;0.00;;;0.00;;
11263;SDS011;5689;48.798;9.070;2023-09-18T14:33:49;0.00;;;0.00;;
11263;SDS011;5689;48.798;9.070;2023-09-18T14:36:19;0.00;;;0.00;;
11263;SDS011;5689;48.798;9.070;2023-09-18T14:38:47;0.00;;;0.00;;
11263;SDS011;5689;48.798;9.070;2023-09-18T14:41:15;0.00;;;0.00;;
11263;SDS011;5689;48.798;9.070;2023-09-18T14:43:44;0.00;;;0.00;;
11263;SDS011;5689;48.798;9.070;2023-09-18T14:46:12;0.00;;;0.00;;
11263;SDS011;5689;48.798;9.070;2023-09-18T14:48:40;0.00;;;0.00;;
11263;SDS011;5689;48.798;9.070;2023-09-18T14:51:09;0.00;;;0.00;;
11263;SDS011;5689;48.798;9.070;2023-09-18T14:53:39;0.00;;;0.00;;
11263;SDS011;5689;48.798;9.070;2023-09-18T14:56:07;0.00;;;0.00;;
11263;SDS011;5689;48.798;9.070;2023-09-18T14:58:39;0.00;;;0.00;;
11263;SDS011;5689;48.798;9.070;2023-09-18T15:01:07;0.00;;;0.00;;
11263;SDS011;5689;48.798;9.070;2023-09-18T15:03:36;0.00;;;0.00;;
11263;SDS011;5689;48.798;9.070;2023-09-18T15:06:05;0.00;;;0.00;;
11263;SDS011;5689;48.798;9.070;2023-09-18T15:08:33;0.00;;;0.00;;
11263;SDS011;5689;48.798;9.070;2023-09-18T15:11:03;0.00;;;0.00;;
11263;SDS011;5689;48.798;9.070;2023-09-18T15:13:31;0.00;;;0.00;;
11263;SDS011;5689;48.798;9.070;2023-09-18T15:16:01;0.00;;;0.00;;
11263;SDS011;5689;48.798;9.070;2023-09-18T15:18:29;0.00;;;0.00;;
11263;SDS011;5689;48.798;9.070;2023-09-18T15:20:57;0.00;;;0.00;;
11263;SDS011;5689;48.798;9.070;2023-09-18T15:23:25;0.00;;;0.00;;